| time (UTC) | temp F | wind direction | speed knots | gust knots | rain 1hr in | rain 24hr in | rain mn in | humidity % | barometer mb |
| 20260507231536 | 59 | 294 | 0.0 | 0.0 | 0.00 | 0.04 | 0.01 | 34 | 1007.7 |
| 20260507230037 | 59 | 277 | 0.0 | 0.0 | 0.00 | 0.04 | 0.01 | 35 | 1007.7 |
| 20260507224536 | 59 | 284 | 0.0 | 0.0 | 0.00 | 0.06 | 0.01 | 34 | 1007.6 |
| 20260507223034 | 60 | 306 | 0.0 | 0.0 | 0.00 | 0.06 | 0.01 | 34 | 1007.5 |
| 20260507221534 | 60 | 302 | 0.0 | 0.0 | 0.00 | 0.06 | 0.01 | 32 | 1007.3 |
| 20260507220033 | 61 | 290 | 0.0 | 0.0 | 0.00 | 0.06 | 0.01 | 33 | 1007.1 |
| 20260507214536 | 62 | 330 | 0.0 | 0.0 | 0.00 | 0.10 | 0.01 | 32 | 1007.0 |
| 20260507213040 | 62 | 281 | 0.0 | 0.0 | 0.00 | 0.10 | 0.01 | 33 | 1007.1 |
| 20260507211545 | 62 | 290 | 0.0 | 0.0 | 0.00 | 0.10 | 0.01 | 32 | 1007.2 |
| 20260507210033 | 62 | 271 | 0.0 | 0.0 | 0.00 | 0.10 | 0.01 | 33 | 1007.1 |
| 20260507204531 | 62 | 341 | 0.0 | 0.0 | 0.00 | 0.15 | 0.01 | 33 | 1006.9 |
| 20260507203030 | 64 | 274 | 0.0 | 0.0 | 0.00 | 0.15 | 0.01 | 32 | 1006.9 |
| 20260507201536 | 65 | 294 | 0.0 | 0.0 | 0.00 | 0.15 | 0.01 | 33 | 1007.0 |
| 20260507200034 | 65 | 261 | 0.0 | 0.0 | 0.00 | 0.15 | 0.01 | 32 | 1006.9 |
| 20260507194525 | 64 | 333 | 0.0 | 0.0 | 0.00 | 0.18 | 0.01 | 34 | 1007.1 |
| 20260507193025 | 64 | 303 | 0.0 | 0.0 | 0.00 | 0.18 | 0.01 | 34 | 1007.3 |
| 20260507191525 | 62 | 355 | 0.0 | 0.0 | 0.00 | 0.18 | 0.01 | 36 | 1007.4 |
| 20260507190021 | 64 | 309 | 0.0 | 0.0 | 0.00 | 0.18 | 0.01 | 33 | 1007.4 |
| 20260507184520 | 64 | 291 | 0.0 | 0.0 | 0.00 | 0.22 | 0.01 | 34 | 1007.5 |
| 20260507183019 | 64 | 355 | 0.0 | 0.0 | 0.00 | 0.22 | 0.01 | 33 | 1007.8 |
| 20260507181518 | 64 | 268 | 0.0 | 0.0 | 0.00 | 0.22 | 0.01 | 34 | 1007.5 |
| 20260507180036 | 63 | 307 | 0.0 | 0.0 | 0.00 | 0.22 | 0.01 | 35 | 1007.6 |
| 20260507174519 | 63 | 260 | 0.0 | 0.0 | 0.00 | 0.22 | 0.01 | 37 | 1007.6 |
| 20260507173021 | 63 | 296 | 0.0 | 0.0 | 0.00 | 0.22 | 0.01 | 39 | 1007.5 |
| 20260507171510 | 62 | 309 | 0.0 | 0.0 | 0.00 | 0.22 | 0.01 | 40 | 1007.7 |
| 20260507170021 | 63 | 284 | 0.0 | 0.0 | 0.00 | 0.22 | 0.01 | 44 | 1007.9 |
| 20260507164505 | 61 | 271 | 0.0 | 0.0 | 0.00 | 0.22 | 0.01 | 49 | 1008.2 |
| 20260507163003 | 61 | 269 | 0.0 | 0.0 | 0.00 | 0.22 | 0.01 | 51 | 1008.2 |
| 20260507161505 | 60 | 265 | 0.0 | 0.0 | 0.00 | 0.22 | 0.01 | 55 | 1008.5 |
| 20260507160002 | 60 | 286 | 0.0 | 0.0 | 0.00 | 0.22 | 0.01 | 54 | 1008.6 |
| 20260507154603 | 60 | 260 | 0.0 | 0.0 | 0.00 | 0.22 | 0.01 | 53 | 1008.6 |
| 20260507153107 | 60 | 278 | 0.0 | 0.0 | 0.00 | 0.22 | 0.01 | 54 | 1008.9 |
| 20260507151558 | 60 | 297 | 0.0 | 0.0 | 0.00 | 0.22 | 0.01 | 52 | 1009.0 |
| 20260507150108 | 59 | 288 | 0.0 | 0.0 | 0.00 | 0.22 | 0.01 | 54 | 1009.0 |
| 20260507144555 | 59 | 290 | 0.0 | 0.0 | 0.00 | 0.22 | 0.01 | 56 | 1009.2 |
| 20260507143105 | 59 | 272 | 0.0 | 0.0 | 0.00 | 0.22 | 0.01 | 57 | 1009.0 |
| 20260507141552 | 59 | 306 | 0.0 | 0.0 | 0.00 | 0.22 | 0.01 | 57 | 1009.0 |
| 20260507140053 | 59 | 285 | 0.0 | 0.0 | 0.00 | 0.22 | 0.01 | 60 | 1008.9 |
| 20260507134546 | 56 | 294 | 0.0 | 0.0 | 0.00 | 0.22 | 0.01 | 63 | 1008.9 |
| 20260507133047 | 55 | 271 | 0.0 | 0.0 | 0.00 | 0.22 | 0.01 | 64 | 1009.2 |
| 20260507131547 | 54 | 264 | 0.0 | 0.0 | 0.00 | 0.22 | 0.01 | 66 | 1009.3 |
| 20260507130041 | 53 | 294 | 0.0 | 0.0 | 0.00 | 0.22 | 0.01 | 71 | 1009.6 |
| 20260507124538 | 52 | 267 | 0.0 | 0.0 | 0.00 | 0.22 | 0.01 | 72 | 1009.7 |
| 20260507123034 | 51 | 261 | 0.0 | 0.0 | 0.00 | 0.22 | 0.01 | 76 | 1009.8 |
| 20260507121534 | 50 | 253 | 0.0 | 0.0 | 0.00 | 0.22 | 0.01 | 79 | 1009.8 |
| 20260507120033 | 49 | 255 | 0.0 | 0.0 | 0.00 | 0.22 | 0.01 | 83 | 1009.8 |
| 20260507114530 | 48 | 259 | 0.0 | 0.0 | 0.00 | 0.22 | 0.01 | 85 | 1009.7 |
| 20260507113030 | 48 | 77 | 0.0 | 0.0 | 0.00 | 0.22 | 0.01 | 86 | 1009.7 |
| 20260507111530 | 47 | 77 | 0.0 | 0.0 | 0.00 | 0.22 | 0.01 | 87 | 1009.9 |
| 20260507110028 | 47 | 77 | 0.0 | 0.0 | 0.00 | 0.22 | 0.01 | 87 | 1009.4 |
| 20260507104527 | 47 | 77 | 0.0 | 0.0 | 0.00 | 0.22 | 0.01 | 87 | 1009.3 |
| 20260507103034 | 47 | 339 | 0.0 | 0.0 | 0.00 | 0.22 | 0.01 | 87 | 1009.3 |
| 20260507101526 | 47 | 339 | 0.0 | 0.0 | 0.00 | 0.22 | 0.01 | 88 | 1009.2 |
| 20260507100024 | 47 | 340 | 0.0 | 0.0 | 0.00 | 0.22 | 0.01 | 88 | 1009.6 |
| 20260507094523 | 47 | 153 | 0.0 | 0.0 | 0.00 | 0.22 | 0.01 | 89 | 1009.4 |
| 20260507093021 | 47 | 274 | 0.0 | 0.0 | 0.00 | 0.22 | 0.01 | 89 | 1009.1 |
| 20260507091529 | 48 | 274 | 0.0 | 0.0 | 0.00 | 0.22 | 0.01 | 89 | 1009.4 |
| 20260507090018 | 48 | 285 | 0.0 | 0.0 | 0.01 | 0.22 | 0.01 | 88 | 1009.3 |
| 20260507084534 | 48 | 286 | 0.0 | 0.0 | 0.01 | 0.22 | 0.01 | 87 | 1008.8 |
| 20260507083014 | 49 | 287 | 0.0 | 0.0 | 0.01 | 0.22 | 0.01 | 86 | 1009.0 |
| 20260507081514 | 49 | 287 | 0.0 | 0.0 | 0.01 | 0.22 | 0.01 | 85 | 1008.5 |
| 20260507080011 | 49 | 266 | 0.0 | 0.0 | 0.00 | 0.21 | 0.00 | 84 | 1009.2 |
| 20260507074512 | 50 | 289 | 0.0 | 0.0 | 0.00 | 0.21 | 0.00 | 84 | 1008.6 |
| 20260507073008 | 50 | 311 | 0.0 | 0.0 | 0.00 | 0.21 | 0.00 | 85 | 1008.7 |
| 20260507071607 | 50 | 272 | 0.0 | 0.0 | 0.00 | 0.21 | 0.00 | 85 | 1008.4 |
| 20260507070009 | 50 | 306 | 0.0 | 0.0 | 0.00 | 0.21 | 0.00 | 85 | 1008.1 |
| 20260507064504 | 50 | 276 | 0.0 | 0.0 | 0.00 | 0.21 | 0.00 | 86 | 1008.3 |
| 20260507063001 | 51 | 271 | 0.0 | 0.0 | 0.00 | 0.21 | 0.00 | 86 | 1008.1 |
| 20260507061600 | 51 | 298 | 0.0 | 0.0 | 0.00 | 0.21 | 0.00 | 85 | 1008.0 |
| 20260507054613 | 51 | 278 | 0.0 | 0.0 | 0.00 | 0.21 | 0.00 | 85 | 1008.4 |
| 20260507053106 | 52 | 275 | 0.0 | 0.0 | 0.00 | 0.21 | 0.00 | 85 | 1008.4 |
| 20260507051558 | 52 | 271 | 0.0 | 0.0 | 0.00 | 0.21 | 0.00 | 85 | 1008.3 |
| 20260507050056 | 53 | 264 | 0.0 | 0.0 | 0.00 | 0.21 | 0.00 | 86 | 1007.9 |
| 20260507044556 | 53 | 299 | 0.0 | 0.0 | 0.00 | 0.21 | 0.00 | 86 | 1008.0 |
| 20260507043049 | 54 | 279 | 0.0 | 0.0 | 0.00 | 0.21 | 0.00 | 87 | 1008.3 |
| 20260507041558 | 54 | 292 | 0.0 | 0.0 | 0.00 | 0.21 | 0.00 | 88 | 1008.1 |
| 20260507040043 | 55 | 294 | 0.0 | 0.0 | 0.00 | 0.21 | 0.00 | 90 | 1007.9 |
| 20260507034538 | 56 | 299 | 0.0 | 0.0 | 0.00 | 0.21 | 0.21 | 91 | 1007.6 |
| 20260507033038 | 57 | 291 | 0.0 | 0.0 | 0.00 | 0.21 | 0.21 | 92 | 1007.4 |
| 20260507031538 | 58 | 284 | 0.0 | 0.0 | 0.00 | 0.21 | 0.21 | 93 | 1007.7 |
| 20260507030031 | 59 | 283 | 0.0 | 0.0 | 0.00 | 0.21 | 0.21 | 93 | 1007.1 |
| 20260507024534 | 59 | 306 | 0.0 | 0.0 | 0.00 | 0.21 | 0.21 | 93 | 1006.9 |
| 20260507023029 | 59 | 259 | 0.0 | 0.0 | 0.00 | 0.21 | 0.21 | 93 | 1006.6 |
| 20260507021534 | 59 | 211 | 0.0 | 0.0 | 0.00 | 0.21 | 0.21 | 93 | 1006.7 |
| 20260507020027 | 59 | 298 | 0.0 | 0.0 | 0.00 | 0.21 | 0.21 | 93 | 1006.9 |
| 20260507014529 | 59 | 296 | 0.0 | 0.0 | 0.00 | 0.21 | 0.21 | 93 | 1007.0 |
| 20260507013025 | 59 | 355 | 0.0 | 0.0 | 0.00 | 0.21 | 0.21 | 93 | 1007.1 |
| 20260507011525 | 60 | 207 | 0.0 | 0.0 | 0.00 | 0.21 | 0.21 | 93 | 1007.1 |
| 20260507010031 | 59 | 257 | 0.0 | 0.0 | 0.00 | 0.21 | 0.21 | 93 | 1007.1 |
| 20260507004523 | 60 | 300 | 0.0 | 0.0 | 0.01 | 0.21 | 0.21 | 93 | 1007.0 |
| 20260507003022 | 60 | 290 | 0.0 | 0.0 | 0.02 | 0.21 | 0.21 | 93 | 1006.8 |
| 20260507001522 | 60 | 296 | 0.0 | 0.0 | 0.03 | 0.21 | 0.21 | 93 | 1006.9 |
| 20260507000026 | 60 | 227 | 0.0 | 0.0 | 0.03 | 0.21 | 0.21 | 93 | 1006.8 |
| 20260506234520 | 60 | 272 | 0.0 | 0.0 | 0.02 | 0.20 | 0.20 | 92 | 1006.9 |
| 20260506233020 | 60 | 182 | 0.0 | 0.0 | 0.02 | 0.19 | 0.19 | 92 | 1006.8 |